Accueil
METAR-TAF:

METAR-TAF

Aéroports :

Aéroport de Tenerife-Sud

Ténérife Sud, Espagne

latitude: 28-03N, longitude: 016-34W, altitude: 64 m

Observation

Le bulletin a été fait il y a 34 minutes, à 23:30 UTC
Vent 8 kt de nord/nord-est
Température 16°C
Humidité 63%
Pression 1025 hPa
Visibilité 10 km ou plus
Quelques nuages à une hauteur de 3500 ft

METAR: GCTS 262330Z 03008KT 9999 FEW035 16/09 Q1025 NOSIG

Heure: 00:04 (00:04 UTC)

Prévision

Le bulletin a été fait il y a 4 heures et 4 minutes, à 20:00 UTC
Prévision valable du 26 à 21 UTC au 27 à 21 UTC
Vent 12 kt de nord-est
Visibilité 10 km ou plus
Quelques nuages à une hauteur de 3500 ft
Evoluant progressivement
du 27 à 08 UTC au 27 à 10 UTC
Vent 15 kt de est

TAF: GCTS 262000Z 2621/2721 04012KT 9999 FEW035 TX21/2712Z TN14/2706Z BECMG 2708/2710 10015KT

Observations et prévisions météorologiques de plus de 4000 aéroports (messages METAR et TAF).

Les stations disponibles sont représentées par des disques jaunes et rouges sur la carte.

Passer la souris dessus pour voir le nom de la station.

Cliquer dessus pour voir les observations et prévisions météorologiques.

Pour changer de carte: cliquez sur les boutons verts avec une croix noire pour zoomer, sur le bouton vert avec un tiret pour effectuer un zoom arrière, ou sur les flèches vertes pour les cartes adjacentes.


METAR-TAF: